sensor_id;sensor_type;location;lat;lon;timestamp;pressure;altitude;pressure_sealevel;temperature;humidity
32237;BME280;18726;44.732;10.550;2023-07-13T00:02:50;100858.88;;;30.81;100.00
32237;BME280;18726;44.732;10.550;2023-07-13T00:05:59;100858.47;;;30.74;100.00
32237;BME280;18726;44.732;10.550;2023-07-13T00:09:03;100862.84;;;30.75;100.00
32237;BME280;18726;44.732;10.550;2023-07-13T00:12:23;100855.94;;;30.61;98.00
32237;BME280;18726;44.732;10.550;2023-07-13T00:15:27;100848.56;;;30.49;88.10
32237;BME280;18726;44.732;10.550;2023-07-13T00:18:33;100848.25;;;30.47;82.45
32237;BME280;18726;44.732;10.550;2023-07-13T00:21:37;100842.06;;;30.43;77.34
32237;BME280;18726;44.732;10.550;2023-07-13T00:24:40;100861.47;;;30.32;76.26
32237;BME280;18726;44.732;10.550;2023-07-13T00:27:47;100860.19;;;30.33;75.78
32237;BME280;18726;44.732;10.550;2023-07-13T00:30:52;100867.56;;;30.30;75.59
32237;BME280;18726;44.732;10.550;2023-07-13T00:33:55;100865.88;;;30.23;74.86
32237;BME280;18726;44.732;10.550;2023-07-13T00:36:59;100853.81;;;30.32;74.93
32237;BME280;18726;44.732;10.550;2023-07-13T00:40:04;100851.69;;;30.27;75.07
32237;BME280;18726;44.732;10.550;2023-07-13T00:43:15;100841.25;;;30.28;74.61
32237;BME280;18726;44.732;10.550;2023-07-13T00:46:24;100823.97;;;30.29;73.69
32237;BME280;18726;44.732;10.550;2023-07-13T00:49:30;100832.16;;;30.33;73.18
32237;BME280;18726;44.732;10.550;2023-07-13T00:52:38;100827.53;;;30.30;74.23
32237;BME280;18726;44.732;10.550;2023-07-13T00:55:44;100819.59;;;30.28;73.90
32237;BME280;18726;44.732;10.550;2023-07-13T00:58:49;100821.16;;;30.05;74.84
32237;BME280;18726;44.732;10.550;2023-07-13T01:01:54;100818.50;;;29.78;75.08
32237;BME280;18726;44.732;10.550;2023-07-13T01:04:57;100810.22;;;29.60;75.17
32237;BME280;18726;44.732;10.550;2023-07-13T01:08:02;100796.25;;;29.50;75.12
32237;BME280;18726;44.732;10.550;2023-07-13T01:11:07;100792.22;;;29.51;74.83
32237;BME280;18726;44.732;10.550;2023-07-13T01:14:11;100795.50;;;29.50;74.82
32237;BME280;18726;44.732;10.550;2023-07-13T01:17:16;100789.13;;;29.49;74.54
32237;BME280;18726;44.732;10.550;2023-07-13T01:20:20;100785.50;;;29.58;74.24
32237;BME280;18726;44.732;10.550;2023-07-13T01:23:26;100777.63;;;29.47;74.32
32237;BME280;18726;44.732;10.550;2023-07-13T01:26:30;100771.16;;;29.32;74.85
32237;BME280;18726;44.732;10.550;2023-07-13T01:29:35;100776.22;;;29.10;76.10
32237;BME280;18726;44.732;10.550;2023-07-13T01:32:44;100772.88;;;28.78;77.45
32237;BME280;18726;44.732;10.550;2023-07-13T01:35:48;100780.66;;;28.74;78.18
32237;BME280;18726;44.732;10.550;2023-07-13T01:38:54;100774.59;;;28.67;78.80
32237;BME280;18726;44.732;10.550;2023-07-13T01:41:57;100775.69;;;28.60;79.02
32237;BME280;18726;44.732;10.550;2023-07-13T01:45:01;100772.72;;;28.73;78.62
32237;BME280;18726;44.732;10.550;2023-07-13T01:48:07;100761.22;;;28.80;78.63
32237;BME280;18726;44.732;10.550;2023-07-13T01:51:11;100733.41;;;28.76;78.39
32237;BME280;18726;44.732;10.550;2023-07-13T01:54:15;100737.78;;;28.68;79.07
32237;BME280;18726;44.732;10.550;2023-07-13T01:57:21;100742.44;;;28.71;80.08
32237;BME280;18726;44.732;10.550;2023-07-13T02:00:24;100749.25;;;28.79;80.63
32237;BME280;18726;44.732;10.550;2023-07-13T02:03:28;100749.81;;;29.02;79.08
32237;BME280;18726;44.732;10.550;2023-07-13T02:06:35;100732.88;;;29.05;77.71
32237;BME280;18726;44.732;10.550;2023-07-13T02:09:39;100722.06;;;29.22;76.03
32237;BME280;18726;44.732;10.550;2023-07-13T02:12:43;100736.47;;;28.97;80.13
32237;BME280;18726;44.732;10.550;2023-07-13T02:15:50;100754.84;;;28.79;81.22
32237;BME280;18726;44.732;10.550;2023-07-13T02:18:54;100746.28;;;28.92;79.42
32237;BME280;18726;44.732;10.550;2023-07-13T02:21:59;100761.28;;;29.13;78.45
32237;BME280;18726;44.732;10.550;2023-07-13T02:25:03;100760.47;;;29.21;78.15
32237;BME280;18726;44.732;10.550;2023-07-13T02:28:07;100745.19;;;29.32;76.40
32237;BME280;18726;44.732;10.550;2023-07-13T02:31:13;100745.34;;;29.28;78.48
32237;BME280;18726;44.732;10.550;2023-07-13T02:34:17;100750.00;;;29.31;76.95
32237;BME280;18726;44.732;10.550;2023-07-13T02:37:21;100743.94;;;29.33;77.29
32237;BME280;18726;44.732;10.550;2023-07-13T02:40:25;100740.69;;;29.25;80.09
32237;BME280;18726;44.732;10.550;2023-07-13T02:43:29;100739.16;;;29.24;77.68
32237;BME280;18726;44.732;10.550;2023-07-13T02:46:35;100743.63;;;28.98;81.94
32237;BME280;18726;44.732;10.550;2023-07-13T02:49:39;100745.88;;;28.66;89.00
32237;BME280;18726;44.732;10.550;2023-07-13T02:52:43;100748.47;;;28.79;86.28
32237;BME280;18726;44.732;10.550;2023-07-13T02:55:47;100761.44;;;28.49;86.76
32237;BME280;18726;44.732;10.550;2023-07-13T02:58:51;100780.38;;;28.17;90.55
32237;BME280;18726;44.732;10.550;2023-07-13T03:01:55;100768.47;;;28.26;90.05
32237;BME280;18726;44.732;10.550;2023-07-13T03:04:59;100752.41;;;28.08;89.94
32237;BME280;18726;44.732;10.550;2023-07-13T03:08:03;100750.56;;;27.96;89.70
32237;BME280;18726;44.732;10.550;2023-07-13T03:11:11;100740.00;;;27.64;92.86
32237;BME280;18726;44.732;10.550;2023-07-13T03:14:18;100754.47;;;27.99;89.27
32237;BME280;18726;44.732;10.550;2023-07-13T03:17:22;100753.66;;;28.16;87.35
32237;BME280;18726;44.732;10.550;2023-07-13T03:20:26;100752.75;;;28.19;87.04
32237;BME280;18726;44.732;10.550;2023-07-13T03:23:30;100755.53;;;28.10;87.13
32237;BME280;18726;44.732;10.550;2023-07-13T03:26:33;100763.28;;;28.15;87.94
32237;BME280;18726;44.732;10.550;2023-07-13T03:29:37;100759.59;;;28.00;90.15
32237;BME280;18726;44.732;10.550;2023-07-13T03:32:41;100751.47;;;27.84;92.04
32237;BME280;18726;44.732;10.550;2023-07-13T03:35:44;100756.28;;;27.74;91.38
32237;BME280;18726;44.732;10.550;2023-07-13T03:38:51;100760.78;;;27.81;88.78
32237;BME280;18726;44.732;10.550;2023-07-13T03:41:59;100769.63;;;27.79;91.07
32237;BME280;18726;44.732;10.550;2023-07-13T03:45:02;100774.16;;;27.95;89.46
32237;BME280;18726;44.732;10.550;2023-07-13T03:48:08;100785.63;;;27.88;91.53
32237;BME280;18726;44.732;10.550;2023-07-13T03:51:14;100783.72;;;27.67;92.28
32237;BME280;18726;44.732;10.550;2023-07-13T03:54:19;100771.00;;;27.66;93.38
32237;BME280;18726;44.732;10.550;2023-07-13T03:57:23;100790.44;;;27.38;97.68
32237;BME280;18726;44.732;10.550;2023-07-13T04:00:27;100778.91;;;27.76;87.03
32237;BME280;18726;44.732;10.550;2023-07-13T04:03:32;100782.69;;;28.10;87.59
32237;BME280;18726;44.732;10.550;2023-07-13T04:06:36;100773.88;;;28.30;88.81
32237;BME280;18726;44.732;10.550;2023-07-13T04:09:41;100782.25;;;28.48;93.76
32237;BME280;18726;44.732;10.550;2023-07-13T04:12:44;100794.97;;;28.58;93.22
32237;BME280;18726;44.732;10.550;2023-07-13T04:15:48;100796.03;;;28.79;89.57
32237;BME280;18726;44.732;10.550;2023-07-13T04:18:52;100804.53;;;29.03;86.64
32237;BME280;18726;44.732;10.550;2023-07-13T04:22:02;100815.41;;;29.01;89.13
32237;BME280;18726;44.732;10.550;2023-07-13T04:25:07;100827.50;;;29.16;87.99
32237;BME280;18726;44.732;10.550;2023-07-13T04:28:11;100827.13;;;29.41;87.29
32237;BME280;18726;44.732;10.550;2023-07-13T04:31:15;100818.34;;;29.48;85.90
32237;BME280;18726;44.732;10.550;2023-07-13T04:34:18;100814.28;;;29.59;87.37
32237;BME280;18726;44.732;10.550;2023-07-13T04:37:22;100819.22;;;29.64;85.50
32237;BME280;18726;44.732;10.550;2023-07-13T04:40:26;100797.34;;;29.77;86.24
32237;BME280;18726;44.732;10.550;2023-07-13T04:43:31;100797.78;;;29.84;84.97
32237;BME280;18726;44.732;10.550;2023-07-13T04:46:35;100794.94;;;29.94;84.18
32237;BME280;18726;44.732;10.550;2023-07-13T04:49:39;100795.22;;;30.19;84.61
32237;BME280;18726;44.732;10.550;2023-07-13T04:52:43;100802.22;;;30.39;82.57
32237;BME280;18726;44.732;10.550;2023-07-13T04:55:47;100842.13;;;30.58;81.19
32237;BME280;18726;44.732;10.550;2023-07-13T04:58:50;100845.16;;;30.45;79.78
32237;BME280;18726;44.732;10.550;2023-07-13T05:01:54;100837.81;;;30.47;82.45
32237;BME280;18726;44.732;10.550;2023-07-13T05:04:57;100841.69;;;30.50;81.53
32237;BME280;18726;44.732;10.550;2023-07-13T05:08:01;100857.50;;;30.38;82.00
32237;BME280;18726;44.732;10.550;2023-07-13T05:11:05;100848.63;;;30.40;81.79
32237;BME280;18726;44.732;10.550;2023-07-13T05:14:10;100852.28;;;30.31;83.15
32237;BME280;18726;44.732;10.550;2023-07-13T05:17:13;100861.03;;;30.48;81.34
32237;BME280;18726;44.732;10.550;2023-07-13T05:20:18;100847.75;;;30.72;81.40
32237;BME280;18726;44.732;10.550;2023-07-13T05:23:22;100851.13;;;30.38;81.38
32237;BME280;18726;44.732;10.550;2023-07-13T05:26:26;100858.63;;;29.84;80.23
32237;BME280;18726;44.732;10.550;2023-07-13T05:29:30;100851.19;;;30.05;80.38
32237;BME280;18726;44.732;10.550;2023-07-13T05:32:34;100836.31;;;30.22;82.45
32237;BME280;18726;44.732;10.550;2023-07-13T05:35:38;100861.69;;;30.81;80.88
32237;BME280;18726;44.732;10.550;2023-07-13T05:38:41;100871.94;;;32.13;75.19
32237;BME280;18726;44.732;10.550;2023-07-13T05:41:45;100852.56;;;33.08;70.79
32237;BME280;18726;44.732;10.550;2023-07-13T05:44:48;100839.81;;;33.81;65.81
32237;BME280;18726;44.732;10.550;2023-07-13T05:47:52;100842.28;;;34.16;64.23
32237;BME280;18726;44.732;10.550;2023-07-13T05:50:55;100847.53;;;33.86;64.79
32237;BME280;18726;44.732;10.550;2023-07-13T05:53:59;100850.19;;;33.01;65.72
32237;BME280;18726;44.732;10.550;2023-07-13T05:57:03;100864.09;;;32.58;68.40
32237;BME280;18726;44.732;10.550;2023-07-13T06:00:07;100863.03;;;32.55;69.00
32237;BME280;18726;44.732;10.550;2023-07-13T06:03:15;100848.50;;;32.83;69.67
32237;BME280;18726;44.732;10.550;2023-07-13T06:06:19;100843.00;;;32.07;68.26
32237;BME280;18726;44.732;10.550;2023-07-13T06:09:23;100828.31;;;31.63;70.74
32237;BME280;18726;44.732;10.550;2023-07-13T06:12:27;100830.91;;;31.46;71.52
32237;BME280;18726;44.732;10.550;2023-07-13T06:15:31;100859.66;;;30.97;73.45
32237;BME280;18726;44.732;10.550;2023-07-13T06:18:36;100850.84;;;31.33;73.05
32237;BME280;18726;44.732;10.550;2023-07-13T06:21:40;100828.63;;;31.15;73.46
32237;BME280;18726;44.732;10.550;2023-07-13T06:24:44;100847.38;;;31.38;73.28
32237;BME280;18726;44.732;10.550;2023-07-13T06:27:47;100865.97;;;32.93;70.17
32237;BME280;18726;44.732;10.550;2023-07-13T06:30:51;100876.50;;;33.23;66.05
32237;BME280;18726;44.732;10.550;2023-07-13T06:33:55;100866.59;;;32.76;67.12
32237;BME280;18726;44.732;10.550;2023-07-13T06:36:59;100877.94;;;33.39;66.71
32237;BME280;18726;44.732;10.550;2023-07-13T06:40:03;100854.00;;;33.61;66.10
32237;BME280;18726;44.732;10.550;2023-07-13T06:43:08;100832.81;;;33.02;61.75
32237;BME280;18726;44.732;10.550;2023-07-13T06:46:11;100817.25;;;32.55;62.80
32237;BME280;18726;44.732;10.550;2023-07-13T06:49:15;100839.97;;;31.55;66.57
32237;BME280;18726;44.732;10.550;2023-07-13T06:52:18;100832.56;;;30.94;70.40
32237;BME280;18726;44.732;10.550;2023-07-13T06:55:22;100853.06;;;30.32;73.64
32237;BME280;18726;44.732;10.550;2023-07-13T06:58:25;100851.25;;;29.96;75.63
32237;BME280;18726;44.732;10.550;2023-07-13T07:01:29;100853.94;;;29.90;75.57
32237;BME280;18726;44.732;10.550;2023-07-13T07:04:32;100876.78;;;30.21;77.35
32237;BME280;18726;44.732;10.550;2023-07-13T07:07:36;100887.38;;;30.65;77.18
32237;BME280;18726;44.732;10.550;2023-07-13T07:10:40;100887.81;;;30.87;75.30
32237;BME280;18726;44.732;10.550;2023-07-13T07:13:44;100855.69;;;31.03;75.25
32237;BME280;18726;44.732;10.550;2023-07-13T07:16:48;100842.94;;;31.17;73.87
32237;BME280;18726;44.732;10.550;2023-07-13T07:19:52;100881.53;;;31.22;74.15
32237;BME280;18726;44.732;10.550;2023-07-13T07:22:57;100888.13;;;31.19;74.77
32237;BME280;18726;44.732;10.550;2023-07-13T07:26:01;100881.94;;;31.15;74.87
32237;BME280;18726;44.732;10.550;2023-07-13T07:29:04;100860.69;;;30.07;79.79
32237;BME280;18726;44.732;10.550;2023-07-13T07:32:08;100837.41;;;29.26;85.03
32237;BME280;18726;44.732;10.550;2023-07-13T07:35:12;100853.69;;;28.85;90.65
32237;BME280;18726;44.732;10.550;2023-07-13T07:38:16;100842.78;;;28.78;87.30
32237;BME280;18726;44.732;10.550;2023-07-13T07:41:20;100812.34;;;29.32;86.93
32237;BME280;18726;44.732;10.550;2023-07-13T07:44:24;100805.31;;;29.03;89.66
32237;BME280;18726;44.732;10.550;2023-07-13T07:47:27;100791.94;;;28.98;87.34
32237;BME280;18726;44.732;10.550;2023-07-13T07:50:32;100785.63;;;28.61;89.33
32237;BME280;18726;44.732;10.550;2023-07-13T07:53:36;100806.84;;;29.13;89.01
32237;BME280;18726;44.732;10.550;2023-07-13T07:56:40;100832.72;;;29.41;88.21
32237;BME280;18726;44.732;10.550;2023-07-13T07:59:43;100824.06;;;29.63;87.15
32237;BME280;18726;44.732;10.550;2023-07-13T08:02:47;100811.84;;;29.75;88.00
32237;BME280;18726;44.732;10.550;2023-07-13T08:05:54;100810.81;;;29.64;89.03
32237;BME280;18726;44.732;10.550;2023-07-13T08:08:58;100823.09;;;29.24;92.52
32237;BME280;18726;44.732;10.550;2023-07-13T08:12:01;100844.44;;;29.12;91.95
32237;BME280;18726;44.732;10.550;2023-07-13T08:15:06;100825.97;;;28.97;93.16
32237;BME280;18726;44.732;10.550;2023-07-13T08:18:12;100839.28;;;29.20;94.27
32237;BME280;18726;44.732;10.550;2023-07-13T08:21:16;100886.50;;;29.36;92.69
32237;BME280;18726;44.732;10.550;2023-07-13T08:24:23;100875.59;;;29.47;91.27
32237;BME280;18726;44.732;10.550;2023-07-13T08:27:28;100855.56;;;29.40;87.77
32237;BME280;18726;44.732;10.550;2023-07-13T08:30:32;100886.72;;;29.14;91.52
32237;BME280;18726;44.732;10.550;2023-07-13T08:33:37;100934.56;;;29.26;94.36
32237;BME280;18726;44.732;10.550;2023-07-13T08:36:41;100973.59;;;29.20;94.54
32237;BME280;18726;44.732;10.550;2023-07-13T08:39:45;100942.63;;;28.41;100.00
32237;BME280;18726;44.732;10.550;2023-07-13T08:42:54;100926.03;;;28.47;99.43
32237;BME280;18726;44.732;10.550;2023-07-13T08:46:07;100909.63;;;28.85;98.29
32237;BME280;18726;44.732;10.550;2023-07-13T08:49:16;100887.06;;;28.43;100.00
32237;BME280;18726;44.732;10.550;2023-07-13T08:52:35;100851.50;;;27.67;100.00
32237;BME280;18726;44.732;10.550;2023-07-13T08:55:40;100844.38;;;27.75;100.00
32237;BME280;18726;44.732;10.550;2023-07-13T08:58:47;100857.66;;;28.11;100.00
32237;BME280;18726;44.732;10.550;2023-07-13T09:02:00;100889.69;;;28.47;100.00
32237;BME280;18726;44.732;10.550;2023-07-13T09:05:31;100913.81;;;28.81;100.00
32237;BME280;18726;44.732;10.550;2023-07-13T09:08:54;100928.53;;;29.00;100.00
32237;BME280;18726;44.732;10.550;2023-07-13T09:15:46;100946.84;;;29.19;100.00
32237;BME280;18726;44.732;10.550;2023-07-13T09:18:54;100971.41;;;29.24;100.00
32237;BME280;18726;44.732;10.550;2023-07-13T09:22:02;100974.25;;;29.15;100.00
32237;BME280;18726;44.732;10.550;2023-07-13T09:28:44;100983.22;;;29.37;100.00
32237;BME280;18726;44.732;10.550;2023-07-13T09:31:54;100983.63;;;30.14;100.00
32237;BME280;18726;44.732;10.550;2023-07-13T09:34:59;100995.22;;;30.88;94.01
32237;BME280;18726;44.732;10.550;2023-07-13T09:38:18;100998.31;;;31.58;88.85
32237;BME280;18726;44.732;10.550;2023-07-13T09:41:53;101004.00;;;32.08;83.66
32237;BME280;18726;44.732;10.550;2023-07-13T09:45:01;100994.19;;;32.94;80.06
32237;BME280;18726;44.732;10.550;2023-07-13T09:48:14;100988.16;;;33.52;74.60
32237;BME280;18726;44.732;10.550;2023-07-13T09:51:18;100998.75;;;33.89;74.76
32237;BME280;18726;44.732;10.550;2023-07-13T09:54:25;100986.25;;;34.38;72.67
32237;BME280;18726;44.732;10.550;2023-07-13T09:57:29;100985.13;;;34.73;68.82
32237;BME280;18726;44.732;10.550;2023-07-13T10:00:32;100990.38;;;34.97;66.52
32237;BME280;18726;44.732;10.550;2023-07-13T10:03:37;100979.91;;;35.14;67.23
32237;BME280;18726;44.732;10.550;2023-07-13T10:06:47;100979.69;;;35.57;64.64
32237;BME280;18726;44.732;10.550;2023-07-13T10:09:55;100966.78;;;36.11;62.89
32237;BME280;18726;44.732;10.550;2023-07-13T10:12:59;100960.75;;;36.65;57.34
32237;BME280;18726;44.732;10.550;2023-07-13T10:16:05;100958.59;;;36.82;59.79
32237;BME280;18726;44.732;10.550;2023-07-13T10:19:14;100943.50;;;37.10;59.00
32237;BME280;18726;44.732;10.550;2023-07-13T10:22:36;100945.28;;;37.13;59.24
32237;BME280;18726;44.732;10.550;2023-07-13T10:25:43;100942.88;;;37.28;56.31
32237;BME280;18726;44.732;10.550;2023-07-13T10:28:52;100944.25;;;37.51;54.63
32237;BME280;18726;44.732;10.550;2023-07-13T10:31:56;100933.19;;;37.48;56.49
32237;BME280;18726;44.732;10.550;2023-07-13T10:35:00;100937.47;;;36.89;54.00
32237;BME280;18726;44.732;10.550;2023-07-13T10:38:11;100935.00;;;37.10;57.20
32237;BME280;18726;44.732;10.550;2023-07-13T10:41:19;100933.47;;;37.44;52.04
32237;BME280;18726;44.732;10.550;2023-07-13T10:44:27;100926.44;;;37.21;55.73
32237;BME280;18726;44.732;10.550;2023-07-13T10:47:32;100914.31;;;36.33;54.71
32237;BME280;18726;44.732;10.550;2023-07-13T10:50:37;100906.13;;;34.78;57.33
32237;BME280;18726;44.732;10.550;2023-07-13T10:53:47;100899.72;;;36.01;60.84
32237;BME280;18726;44.732;10.550;2023-07-13T11:00:22;100898.25;;;36.99;58.94
32237;BME280;18726;44.732;10.550;2023-07-13T11:03:28;100886.50;;;36.83;57.28
32237;BME280;18726;44.732;10.550;2023-07-13T11:06:43;100881.38;;;37.47;57.99
32237;BME280;18726;44.732;10.550;2023-07-13T11:09:58;100878.03;;;37.13;54.06
32237;BME280;18726;44.732;10.550;2023-07-13T11:13:03;100874.97;;;37.71;54.40
32237;BME280;18726;44.732;10.550;2023-07-13T11:16:35;100862.34;;;36.71;53.64
32237;BME280;18726;44.732;10.550;2023-07-13T11:19:40;100859.16;;;35.76;56.92
32237;BME280;18726;44.732;10.550;2023-07-13T11:25:53;100855.56;;;35.81;58.73
32237;BME280;18726;44.732;10.550;2023-07-13T11:28:57;100855.78;;;34.60;59.82
32237;BME280;18726;44.732;10.550;2023-07-13T11:32:24;100854.31;;;34.87;59.78
32237;BME280;18726;44.732;10.550;2023-07-13T11:35:31;100857.84;;;35.94;59.64
32237;BME280;18726;44.732;10.550;2023-07-13T11:38:38;100855.56;;;35.70;57.07
32237;BME280;18726;44.732;10.550;2023-07-13T11:41:45;100851.00;;;35.44;56.46
32237;BME280;18726;44.732;10.550;2023-07-13T11:44:52;100844.31;;;35.31;57.60
32237;BME280;18726;44.732;10.550;2023-07-13T11:47:57;100844.22;;;35.92;57.32
32237;BME280;18726;44.732;10.550;2023-07-13T11:51:04;100848.72;;;36.29;55.44
32237;BME280;18726;44.732;10.550;2023-07-13T11:54:33;100843.91;;;36.59;58.51
32237;BME280;18726;44.732;10.550;2023-07-13T11:57:43;100844.00;;;37.49;57.80
32237;BME280;18726;44.732;10.550;2023-07-13T12:00:49;100840.63;;;37.99;55.89
32237;BME280;18726;44.732;10.550;2023-07-13T12:03:54;100839.31;;;37.27;50.56
32237;BME280;18726;44.732;10.550;2023-07-13T12:07:08;100843.72;;;37.53;49.83
32237;BME280;18726;44.732;10.550;2023-07-13T12:13:22;100817.84;;;36.31;51.85
32237;BME280;18726;44.732;10.550;2023-07-13T12:16:32;100822.69;;;37.42;50.96
32237;BME280;18726;44.732;10.550;2023-07-13T12:19:36;100815.94;;;37.21;53.44
32237;BME280;18726;44.732;10.550;2023-07-13T12:22:46;100802.38;;;35.79;54.29
32237;BME280;18726;44.732;10.550;2023-07-13T12:25:51;100803.22;;;35.46;54.76
32237;BME280;18726;44.732;10.550;2023-07-13T12:28:55;100804.91;;;35.89;55.21
32237;BME280;18726;44.732;10.550;2023-07-13T12:32:00;100798.69;;;35.96;53.85
32237;BME280;18726;44.732;10.550;2023-07-13T12:35:14;100794.03;;;36.04;54.66
32237;BME280;18726;44.732;10.550;2023-07-13T12:38:19;100790.13;;;35.32;58.11
32237;BME280;18726;44.732;10.550;2023-07-13T12:41:25;100792.41;;;35.50;56.20
32237;BME280;18726;44.732;10.550;2023-07-13T12:44:32;100784.94;;;36.28;54.77
32237;BME280;18726;44.732;10.550;2023-07-13T12:47:43;100778.72;;;36.35;54.23
32237;BME280;18726;44.732;10.550;2023-07-13T12:50:50;100771.88;;;35.39;57.29
32237;BME280;18726;44.732;10.550;2023-07-13T12:53:58;100772.97;;;34.85;61.83
32237;BME280;18726;44.732;10.550;2023-07-13T12:57:16;100775.66;;;34.24;59.60
32237;BME280;18726;44.732;10.550;2023-07-13T13:03:38;100776.41;;;35.70;57.29
32237;BME280;18726;44.732;10.550;2023-07-13T13:06:44;100778.06;;;34.59;58.86
32237;BME280;18726;44.732;10.550;2023-07-13T13:09:48;100777.53;;;35.44;55.45
32237;BME280;18726;44.732;10.550;2023-07-13T13:12:53;100778.72;;;35.77;53.12
32237;BME280;18726;44.732;10.550;2023-07-13T13:16:04;100778.72;;;36.35;53.21
32237;BME280;18726;44.732;10.550;2023-07-13T13:19:19;100776.19;;;36.97;53.59
32237;BME280;18726;44.732;10.550;2023-07-13T13:22:25;100773.88;;;37.25;52.24
32237;BME280;18726;44.732;10.550;2023-07-13T13:25:28;100777.19;;;37.78;54.87
32237;BME280;18726;44.732;10.550;2023-07-13T13:28:32;100764.25;;;38.20;53.72
32237;BME280;18726;44.732;10.550;2023-07-13T13:31:36;100753.88;;;38.41;51.31
32237;BME280;18726;44.732;10.550;2023-07-13T13:34:40;100758.69;;;38.65;50.62
32237;BME280;18726;44.732;10.550;2023-07-13T13:37:45;100757.56;;;38.87;50.31
32237;BME280;18726;44.732;10.550;2023-07-13T13:40:51;100749.38;;;38.33;49.44
32237;BME280;18726;44.732;10.550;2023-07-13T13:43:54;100755.19;;;36.87;51.59
32237;BME280;18726;44.732;10.550;2023-07-13T13:46:58;100748.34;;;37.01;50.60
32237;BME280;18726;44.732;10.550;2023-07-13T13:50:15;100749.09;;;36.71;54.72
32237;BME280;18726;44.732;10.550;2023-07-13T13:53:19;100746.63;;;37.22;53.25
32237;BME280;18726;44.732;10.550;2023-07-13T13:56:23;100745.69;;;36.07;56.54
32237;BME280;18726;44.732;10.550;2023-07-13T13:59:26;100753.81;;;36.28;54.69
32237;BME280;18726;44.732;10.550;2023-07-13T14:02:30;100752.38;;;35.35;57.86
32237;BME280;18726;44.732;10.550;2023-07-13T14:05:35;100752.66;;;35.04;57.43
32237;BME280;18726;44.732;10.550;2023-07-13T14:08:39;100751.22;;;36.30;56.08
32237;BME280;18726;44.732;10.550;2023-07-13T14:11:43;100749.75;;;36.12;55.76
32237;BME280;18726;44.732;10.550;2023-07-13T14:14:47;100747.56;;;36.70;54.23
32237;BME280;18726;44.732;10.550;2023-07-13T14:17:52;100750.16;;;37.28;53.49
32237;BME280;18726;44.732;10.550;2023-07-13T14:20:56;100756.44;;;37.21;52.52
32237;BME280;18726;44.732;10.550;2023-07-13T14:23:59;100748.56;;;36.78;51.95
32237;BME280;18726;44.732;10.550;2023-07-13T14:27:04;100758.03;;;37.11;53.44
32237;BME280;18726;44.732;10.550;2023-07-13T14:30:19;100768.22;;;37.74;51.89
32237;BME280;18726;44.732;10.550;2023-07-13T14:33:23;100762.72;;;38.00;51.00
32237;BME280;18726;44.732;10.550;2023-07-13T14:36:41;100743.44;;;34.86;56.17
32237;BME280;18726;44.732;10.550;2023-07-13T14:39:50;100758.59;;;34.83;55.98
32237;BME280;18726;44.732;10.550;2023-07-13T14:42:54;100773.34;;;35.68;55.48
32237;BME280;18726;44.732;10.550;2023-07-13T14:45:58;100763.44;;;36.02;55.08
32237;BME280;18726;44.732;10.550;2023-07-13T14:49:23;100763.69;;;36.04;54.36
32237;BME280;18726;44.732;10.550;2023-07-13T14:52:27;100767.19;;;35.64;58.47
32237;BME280;18726;44.732;10.550;2023-07-13T14:55:31;100780.28;;;35.78;56.92
32237;BME280;18726;44.732;10.550;2023-07-13T14:58:34;100761.41;;;35.97;56.14
32237;BME280;18726;44.732;10.550;2023-07-13T15:01:39;100767.41;;;36.35;54.66
32237;BME280;18726;44.732;10.550;2023-07-13T15:04:44;100774.44;;;36.11;53.69
32237;BME280;18726;44.732;10.550;2023-07-13T15:07:48;100784.28;;;36.05;54.93
32237;BME280;18726;44.732;10.550;2023-07-13T15:10:53;100792.81;;;36.40;53.95
32237;BME280;18726;44.732;10.550;2023-07-13T15:13:57;100796.09;;;37.21;52.68
32237;BME280;18726;44.732;10.550;2023-07-13T15:17:01;100795.28;;;37.50;52.57
32237;BME280;18726;44.732;10.550;2023-07-13T15:20:31;100798.22;;;37.64;51.77
32237;BME280;18726;44.732;10.550;2023-07-13T15:23:35;100803.28;;;37.95;50.63
32237;BME280;18726;44.732;10.550;2023-07-13T15:26:39;100811.41;;;38.04;50.39
32237;BME280;18726;44.732;10.550;2023-07-13T15:29:43;100809.03;;;38.08;49.00
32237;BME280;18726;44.732;10.550;2023-07-13T15:32:48;100796.13;;;37.64;51.58
32237;BME280;18726;44.732;10.550;2023-07-13T15:35:52;100802.97;;;37.80;52.10
32237;BME280;18726;44.732;10.550;2023-07-13T15:38:57;100800.09;;;37.56;52.28
32237;BME280;18726;44.732;10.550;2023-07-13T15:42:02;100794.81;;;37.90;52.05
32237;BME280;18726;44.732;10.550;2023-07-13T15:45:24;100787.41;;;38.05;51.00
32237;BME280;18726;44.732;10.550;2023-07-13T15:48:28;100784.28;;;37.66;51.21
32237;BME280;18726;44.732;10.550;2023-07-13T15:51:34;100797.88;;;37.24;53.72
32237;BME280;18726;44.732;10.550;2023-07-13T15:54:38;100796.66;;;37.63;52.91
32237;BME280;18726;44.732;10.550;2023-07-13T15:57:46;100795.22;;;37.99;52.98
32237;BME280;18726;44.732;10.550;2023-07-13T16:00:49;100796.78;;;38.19;51.73
32237;BME280;18726;44.732;10.550;2023-07-13T16:03:56;100808.56;;;38.42;51.05
32237;BME280;18726;44.732;10.550;2023-07-13T16:07:00;100811.22;;;38.40;50.24
32237;BME280;18726;44.732;10.550;2023-07-13T16:10:04;100801.66;;;38.56;49.84
32237;BME280;18726;44.732;10.550;2023-07-13T16:13:16;100796.44;;;36.76;54.57
32237;BME280;18726;44.732;10.550;2023-07-13T16:16:22;100789.78;;;36.68;55.30
32237;BME280;18726;44.732;10.550;2023-07-13T16:19:29;100796.25;;;36.28;56.84
32237;BME280;18726;44.732;10.550;2023-07-13T16:22:32;100801.69;;;36.61;55.29